createdAt,value
2023-01-26T00:01:50.114Z,22.88
2023-01-26T00:06:55.284Z,21.77
2023-01-26T00:11:58.986Z,21.75
2023-01-26T00:17:02.657Z,20.88
2023-01-26T00:22:07.701Z,21.35
2023-01-26T00:27:11.462Z,21.13
2023-01-26T00:32:15.199Z,20.50
2023-01-26T00:37:20.319Z,20.35
2023-01-26T00:42:24.250Z,22.05
2023-01-26T00:47:28.039Z,20.48
2023-01-26T00:52:35.128Z,20.13
2023-01-26T00:57:39.305Z,19.40
2023-01-26T01:02:43.022Z,20.30
2023-01-26T01:07:49.055Z,20.50
2023-01-26T01:12:52.845Z,20.23
2023-01-26T01:17:56.573Z,19.50
2023-01-26T01:23:01.652Z,18.98
2023-01-26T01:28:05.582Z,18.30
2023-01-26T01:33:09.255Z,18.23
2023-01-26T01:38:14.264Z,17.95
2023-01-26T01:43:18.652Z,17.80
2023-01-26T01:48:26.369Z,18.95
2023-01-26T01:53:36.001Z,19.38
2023-01-26T01:58:43.709Z,17.25
2023-01-26T02:03:50.243Z,17.38
2023-01-26T02:08:57.510Z,17.70
2023-01-26T02:14:03.430Z,19.25
2023-01-26T02:19:13.268Z,14.87
2023-01-26T02:24:23.606Z,14.77
2023-01-26T02:29:28.856Z,17.20
2023-01-26T02:34:33.520Z,15.27
2023-01-26T02:39:45.630Z,15.43
2023-01-26T02:44:51.707Z,16.48
2023-01-26T02:49:58.236Z,13.88
2023-01-26T02:55:19.509Z,16.13
2023-01-26T03:00:26.966Z,15.23
2023-01-26T03:05:30.861Z,14.68
2023-01-26T03:10:35.036Z,13.55
2023-01-26T03:15:48.095Z,12.65
2023-01-26T03:21:09.511Z,14.55
2023-01-26T03:26:30.523Z,12.73
2023-01-26T03:31:35.773Z,13.88
2023-01-26T03:36:40.632Z,14.38
2023-01-26T03:42:06.387Z,13.93
2023-01-26T03:47:29.091Z,11.90
2023-01-26T03:52:50.432Z,13.57
2023-01-26T03:57:54.409Z,12.98
2023-01-26T04:03:17.276Z,12.75
2023-01-26T04:08:21.720Z,11.90
2023-01-26T04:13:43.646Z,11.48
2023-01-26T04:19:13.252Z,12.63
2023-01-26T04:24:17.495Z,12.77
2023-01-26T04:29:24.021Z,11.43
2023-01-26T04:34:29.650Z,11.90
2023-01-26T04:39:34.651Z,9.88
2023-01-26T04:44:38.453Z,10.55
2023-01-26T04:49:44.089Z,11.57
2023-01-26T04:54:49.161Z,9.68
2023-01-26T04:59:53.046Z,10.63
2023-01-26T05:04:59.494Z,10.32
2023-01-26T05:10:03.653Z,9.82
2023-01-26T05:15:27.705Z,10.63
2023-01-26T05:20:46.340Z,9.63
2023-01-26T05:26:02.445Z,9.30
2023-01-26T05:31:08.763Z,10.68
2023-01-26T05:36:13.956Z,9.00
2023-01-26T05:41:18.782Z,9.80
2023-01-26T05:46:38.509Z,9.40
2023-01-26T05:51:44.058Z,9.52
2023-01-26T05:56:48.356Z,9.15
2023-01-26T06:01:52.493Z,8.75
2023-01-26T06:07:00.025Z,8.63
2023-01-26T06:12:16.350Z,8.63
2023-01-26T06:17:42.687Z,9.30
2023-01-26T06:22:51.790Z,9.23
2023-01-26T06:27:59.212Z,8.30
2023-01-26T06:33:06.984Z,7.85
2023-01-26T06:38:15.995Z,7.15
2023-01-26T06:43:21.237Z,8.82
2023-01-26T06:48:25.915Z,7.90
2023-01-26T06:53:35.500Z,7.90
2023-01-26T06:58:59.395Z,7.80
2023-01-26T07:04:14.414Z,8.27
2023-01-26T07:09:19.510Z,7.30
2023-01-26T07:14:23.252Z,9.23
2023-01-26T07:19:27.050Z,8.85
2023-01-26T07:24:32.130Z,7.72
2023-01-26T07:29:35.976Z,8.43
2023-01-26T07:34:39.662Z,8.07
2023-01-26T07:39:44.660Z,8.93
2023-01-26T07:44:48.350Z,8.63
2023-01-26T07:49:52.054Z,8.30
2023-01-26T07:54:57.057Z,7.90
2023-01-26T08:00:00.789Z,7.63
2023-01-26T08:05:04.770Z,8.13
2023-01-26T08:10:12.640Z,7.57
2023-01-26T08:15:16.632Z,7.45
2023-01-26T08:20:20.717Z,8.10
2023-01-26T08:25:25.890Z,9.13
2023-01-26T08:30:29.534Z,8.57
2023-01-26T08:35:33.260Z,9.02
2023-01-26T08:40:38.860Z,9.13
2023-01-26T08:45:42.765Z,8.85
2023-01-26T08:50:46.703Z,10.55
2023-01-26T08:55:51.936Z,11.10
2023-01-26T09:00:55.791Z,11.43
2023-01-26T09:06:01.173Z,10.60
2023-01-26T09:11:08.770Z,11.40
2023-01-26T09:16:20.289Z,11.20
2023-01-26T09:21:25.085Z,12.02
2023-01-26T09:26:30.495Z,9.65
2023-01-26T09:31:34.486Z,11.30
2023-01-26T09:36:40.592Z,11.38
2023-01-26T09:41:58.608Z,11.10
2023-01-26T09:47:11.591Z,10.30
2023-01-26T09:52:23.997Z,11.05
2023-01-26T09:57:34.743Z,10.98
2023-01-26T10:02:56.675Z,10.95
2023-01-26T10:08:00.748Z,9.85
2023-01-26T10:13:06.021Z,10.25
2023-01-26T10:18:14.442Z,11.27
2023-01-26T10:23:22.024Z,11.48
2023-01-26T10:28:31.747Z,9.77
2023-01-26T10:33:38.357Z,10.57
2023-01-26T10:38:44.737Z,10.60
2023-01-26T10:43:55.396Z,11.67
2023-01-26T10:49:01.180Z,8.88
2023-01-26T10:54:22.497Z,8.02
2023-01-26T10:59:32.168Z,7.15
2023-01-26T11:04:35.834Z,6.72
2023-01-26T11:09:39.638Z,8.13
2023-01-26T11:15:01.622Z,8.15
2023-01-26T11:20:23.680Z,6.53
2023-01-26T11:25:34.124Z,6.32
2023-01-26T11:30:59.352Z,6.65
2023-01-26T11:36:10.455Z,5.97
2023-01-26T11:41:29.133Z,5.95
2023-01-26T11:46:59.396Z,6.75
2023-01-26T11:52:12.445Z,5.05
2023-01-26T11:57:23.908Z,3.90
2023-01-26T12:02:32.667Z,4.65
2023-01-26T12:07:54.674Z,3.70
2023-01-26T12:13:06.728Z,3.45
2023-01-26T12:18:21.351Z,2.47
2023-01-26T12:23:33.384Z,2.78
2023-01-26T12:28:46.924Z,3.38
2023-01-26T12:33:55.623Z,2.78
2023-01-26T12:39:13.827Z,2.35
2023-01-26T12:44:27.327Z,1.83
2023-01-26T12:49:35.063Z,2.85
2023-01-26T12:54:45.817Z,1.50
2023-01-26T12:59:50.716Z,2.28
2023-01-26T13:04:57.699Z,2.75
2023-01-26T13:10:29.554Z,1.70
2023-01-26T13:15:34.075Z,1.45
2023-01-26T13:20:50.418Z,2.17
2023-01-26T13:26:16.229Z,1.67
2023-01-26T13:31:33.988Z,1.55
2023-01-26T13:36:42.497Z,1.65
2023-01-26T13:41:47.837Z,2.08
2023-01-26T13:46:56.460Z,1.40
2023-01-26T13:52:01.571Z,1.40
2023-01-26T13:57:07.187Z,2.58
2023-01-26T14:02:22.138Z,1.55
2023-01-26T14:07:29.591Z,1.63
2023-01-26T14:12:36.619Z,1.77
2023-01-26T14:17:51.178Z,2.38
2023-01-26T14:23:14.127Z,1.33
2023-01-26T14:28:21.938Z,0.90
2023-01-26T14:33:26.477Z,1.55
2023-01-26T14:38:42.719Z,1.20
2023-01-26T14:43:47.431Z,1.50
2023-01-26T14:48:57.800Z,1.38
2023-01-26T14:54:06.408Z,1.45
2023-01-26T14:59:18.781Z,1.25
2023-01-26T15:04:27.217Z,1.25
2023-01-26T15:09:35.626Z,1.20
2023-01-26T15:14:48.370Z,1.83
2023-01-26T15:19:54.597Z,0.85
2023-01-26T15:25:18.454Z,1.98
2023-01-26T15:30:27.799Z,1.55
2023-01-26T15:35:33.327Z,1.05
2023-01-26T15:40:38.599Z,1.00
2023-01-26T15:45:44.501Z,0.95
2023-01-26T15:50:48.981Z,1.00
2023-01-26T15:55:56.147Z,1.00
2023-01-26T16:01:00.228Z,1.38
2023-01-26T16:06:04.043Z,1.67
2023-01-26T16:11:12.602Z,0.95
2023-01-26T16:16:17.514Z,1.20
2023-01-26T16:21:24.097Z,0.85
2023-01-26T16:26:29.770Z,1.27
2023-01-26T16:31:36.336Z,1.00
2023-01-26T16:36:40.147Z,1.13
2023-01-26T16:41:45.722Z,1.30
2023-01-26T16:46:49.435Z,1.63
2023-01-26T16:51:53.254Z,1.60
2023-01-26T16:56:58.668Z,0.75
2023-01-26T17:02:03.142Z,0.95
2023-01-26T17:07:06.893Z,1.50
2023-01-26T17:12:12.465Z,1.02
2023-01-26T17:17:16.322Z,1.50
2023-01-26T17:22:20.058Z,1.05
2023-01-26T17:27:25.563Z,0.80
2023-01-26T17:32:29.439Z,1.00
2023-01-26T17:37:33.173Z,1.08
2023-01-26T17:42:38.655Z,1.00
2023-01-26T17:47:43.656Z,1.58
2023-01-26T17:52:47.447Z,1.35
2023-01-26T17:57:52.538Z,1.55
2023-01-26T18:02:56.733Z,1.23
2023-01-26T18:08:00.604Z,1.45
2023-01-26T18:13:05.578Z,1.63
2023-01-26T18:18:09.399Z,1.48
2023-01-26T18:23:13.097Z,1.63
2023-01-26T18:28:18.257Z,1.63
2023-01-26T18:33:21.989Z,1.95
2023-01-26T18:38:25.698Z,1.80
2023-01-26T18:43:32.712Z,1.70
2023-01-26T18:48:37.194Z,1.45
2023-01-26T18:53:41.303Z,1.50
2023-01-26T18:58:46.718Z,1.38
2023-01-26T19:03:55.414Z,1.45
2023-01-26T19:09:01.070Z,1.40
2023-01-26T19:14:07.630Z,1.70
2023-01-26T19:19:13.013Z,1.75
2023-01-26T19:24:17.044Z,1.40
2023-01-26T19:29:22.164Z,1.45
2023-01-26T19:34:28.423Z,2.17
2023-01-26T19:39:32.416Z,1.40
2023-01-26T19:44:37.548Z,1.77
2023-01-26T19:49:42.436Z,1.77
2023-01-26T19:54:46.179Z,1.60
2023-01-26T19:59:52.328Z,1.75
2023-01-26T20:04:55.994Z,1.67
2023-01-26T20:09:59.711Z,2.20
2023-01-26T20:15:04.896Z,1.35
2023-01-26T20:20:12.199Z,1.25
2023-01-26T20:25:16.113Z,1.58
2023-01-26T20:30:22.682Z,1.60
2023-01-26T20:35:26.478Z,1.52
2023-01-26T20:40:30.332Z,1.58
2023-01-26T20:45:35.421Z,1.75
2023-01-26T20:50:40.813Z,1.40
2023-01-26T20:55:44.588Z,2.22
2023-01-26T21:00:49.801Z,1.92
2023-01-26T21:05:53.476Z,1.80
2023-01-26T21:10:57.169Z,1.55
2023-01-26T21:16:02.493Z,1.52
2023-01-26T21:21:09.062Z,2.13
2023-01-26T21:26:14.595Z,1.52
2023-01-26T21:31:19.953Z,1.20
2023-01-26T21:36:24.939Z,1.60
2023-01-26T21:41:47.827Z,1.60
2023-01-26T21:46:54.735Z,2.03
2023-01-26T21:52:16.051Z,1.40
2023-01-26T21:57:37.165Z,1.52
2023-01-26T22:02:42.315Z,1.45
2023-01-26T22:07:46.080Z,1.08
2023-01-26T22:12:49.770Z,1.40
2023-01-26T22:17:54.913Z,1.40
2023-01-26T22:22:58.836Z,1.13
2023-01-26T22:28:03.227Z,1.40
2023-01-26T22:33:08.887Z,1.67
2023-01-26T22:38:12.784Z,1.80
2023-01-26T22:43:16.591Z,1.80
2023-01-26T22:48:22.127Z,2.08
2023-01-26T22:53:26.038Z,1.50
2023-01-26T22:58:32.281Z,1.50
2023-01-26T23:03:39.721Z,1.50
2023-01-26T23:08:43.961Z,1.90
2023-01-26T23:13:49.182Z,1.73
2023-01-26T23:18:55.784Z,1.35
2023-01-26T23:23:59.855Z,1.63
2023-01-26T23:29:03.649Z,1.52
2023-01-26T23:34:08.705Z,2.30
2023-01-26T23:39:12.443Z,2.17
2023-01-26T23:44:16.182Z,1.77
2023-01-26T23:49:21.365Z,1.08
2023-01-26T23:54:25.117Z,1.90
2023-01-26T23:59:28.883Z,1.63
